sensor_id;sensor_type;location;lat;lon;timestamp;P1;P2;P0
76043;PMS7003;64740;34.694;33.088;2023-11-18T00:10:38;5.3;4.1;2.5
76043;PMS7003;64740;34.694;33.088;2023-11-18T00:15:54;4;3.4;2.1
76043;PMS7003;64740;34.694;33.088;2023-11-18T00:20:38;4;3.9;2.3
76043;PMS7003;64740;34.694;33.088;2023-11-18T00:25:46;3.7;3.3;2.2
76043;PMS7003;64740;34.694;33.088;2023-11-18T00:31:02;4;3.3;1.9
76043;PMS7003;64740;34.694;33.088;2023-11-18T00:35:48;4.3;3.4;2.1
76043;PMS7003;64740;34.694;33.088;2023-11-18T00:41:06;3.3;3;1.6
76043;PMS7003;64740;34.694;33.088;2023-11-18T00:46:08;4.5;3.3;1.9
76043;PMS7003;64740;34.694;33.088;2023-11-18T01:36:10;3.2;3.1;1.7
76043;PMS7003;64740;34.694;33.088;2023-11-18T01:40:54;3;2.8;1.5
76043;PMS7003;64740;34.694;33.088;2023-11-18T01:45:56;3.7;2.7;1.3
76043;PMS7003;64740;34.694;33.088;2023-11-18T01:50:40;3;2.4;1.5
76043;PMS7003;64740;34.694;33.088;2023-11-18T01:55:47;2.6;2.5;1.4
76043;PMS7003;64740;34.694;33.088;2023-11-18T02:00:39;2.4;2.1;1.1
76043;PMS7003;64740;34.694;33.088;2023-11-18T02:05:38;2.7;2.2;1.3
76043;PMS7003;64740;34.694;33.088;2023-11-18T02:11:14;3;2.5;1.4
76043;PMS7003;64740;34.694;33.088;2023-11-18T02:15:38;3.1;2;1.3
76043;PMS7003;64740;34.694;33.088;2023-11-18T02:21:10;2.4;2.2;1.1
76043;PMS7003;64740;34.694;33.088;2023-11-18T02:26:10;2.6;2.4;1.3
76043;PMS7003;64740;34.694;33.088;2023-11-18T02:30:54;3;2.2;1.3
76043;PMS7003;64740;34.694;33.088;2023-11-18T02:36:09;3;2.5;1.4
76043;PMS7003;64740;34.694;33.088;2023-11-18T02:40:46;3.2;2.6;1.2
76043;PMS7003;64740;34.694;33.088;2023-11-18T02:45:38;2.4;2.1;1.1
76043;PMS7003;64740;34.694;33.088;2023-11-18T02:51:00;2.5;2.1;1.1
76043;PMS7003;64740;34.694;33.088;2023-11-18T02:55:38;2.6;2.2;1.1
76043;PMS7003;64740;34.694;33.088;2023-11-18T03:00:50;2.6;2.2;1.3
76043;PMS7003;64740;34.694;33.088;2023-11-18T03:05:52;2.7;2;1
76043;PMS7003;64740;34.694;33.088;2023-11-18T03:11:10;2.3;2;1
76043;PMS7003;64740;34.694;33.088;2023-11-18T03:15:54;2.7;1.8;1.2
76043;PMS7003;64740;34.694;33.088;2023-11-18T03:21:10;2.8;2.1;1.2
76043;PMS7003;64740;34.694;33.088;2023-11-18T03:26:10;2.2;1.9;1.1
76043;PMS7003;64740;34.694;33.088;2023-11-18T03:30:38;2.2;1.7;1
76043;PMS7003;64740;34.694;33.088;2023-11-18T03:35:44;2.4;1.7;0.9
76043;PMS7003;64740;34.694;33.088;2023-11-18T03:40:50;2.8;2.2;1.1
76043;PMS7003;64740;34.694;33.088;2023-11-18T03:45:46;2.5;2.1;1
76043;PMS7003;64740;34.694;33.088;2023-11-18T03:51:02;2.4;2;1
76043;PMS7003;64740;34.694;33.088;2023-11-18T03:55:52;2.1;1.7;0.9
76043;PMS7003;64740;34.694;33.088;2023-11-18T04:01:08;2.3;1.7;1
76043;PMS7003;64740;34.694;33.088;2023-11-18T04:06:00;2.3;1.6;0.8
76043;PMS7003;64740;34.694;33.088;2023-11-18T04:11:10;2.2;1.7;1
76043;PMS7003;64740;34.694;33.088;2023-11-18T04:16:09;1.8;1.6;0.9
76043;PMS7003;64740;34.694;33.088;2023-11-18T04:20:42;2.6;1.8;0.9
76043;PMS7003;64740;34.694;33.088;2023-11-18T04:25:46;2.7;2.2;1
76043;PMS7003;64740;34.694;33.088;2023-11-18T04:30:38;2.6;1.9;1
76043;PMS7003;64740;34.694;33.088;2023-11-18T04:35:42;2;1.7;0.8
76043;PMS7003;64740;34.694;33.088;2023-11-18T04:41:02;2.9;1.9;0.9
76043;PMS7003;64740;34.694;33.088;2023-11-18T04:45:47;2.6;1.8;0.9
76043;PMS7003;64740;34.694;33.088;2023-11-18T04:51:10;3.2;2.3;1.2
76043;PMS7003;64740;34.694;33.088;2023-11-18T04:56:00;2.3;2;1.2
76043;PMS7003;64740;34.694;33.088;2023-11-18T05:01:08;2.7;2.1;1
76043;PMS7003;64740;34.694;33.088;2023-11-18T05:06:10;2.6;2.2;1
76043;PMS7003;64740;34.694;33.088;2023-11-18T05:10:40;2.1;1.8;0.9
76043;PMS7003;64740;34.694;33.088;2023-11-18T05:15:44;2.8;2.3;1.3
76043;PMS7003;64740;34.694;33.088;2023-11-18T05:20:38;2.3;2;1
76043;PMS7003;64740;34.694;33.088;2023-11-18T05:25:39;3;2.4;1.1
76043;PMS7003;64740;34.694;33.088;2023-11-18T05:31:10;2.8;1.6;1
76043;PMS7003;64740;34.694;33.088;2023-11-18T05:35:50;3;2;1
76043;PMS7003;64740;34.694;33.088;2023-11-18T05:41:10;3.3;2.4;1.3
76043;PMS7003;64740;34.694;33.088;2023-11-18T05:46:00;2.9;2.1;1.1
76043;PMS7003;64740;34.694;33.088;2023-11-18T05:51:10;3.6;2.4;1.3
76043;PMS7003;64740;34.694;33.088;2023-11-18T05:56:10;3.1;2.2;0.9
76043;PMS7003;64740;34.694;33.088;2023-11-18T06:00:46;2.9;2.3;1
76043;PMS7003;64740;34.694;33.088;2023-11-18T06:05:44;2.6;1.9;0.9
76043;PMS7003;64740;34.694;33.088;2023-11-18T06:10:48;1.9;1.7;0.8
76043;PMS7003;64740;34.694;33.088;2023-11-18T06:15:54;2.3;1.7;0.8
76043;PMS7003;64740;34.694;33.088;2023-11-18T06:21:02;2.4;1.5;0.7
76043;PMS7003;64740;34.694;33.088;2023-11-18T06:25:38;2.3;1.6;0.7
76043;PMS7003;64740;34.694;33.088;2023-11-18T06:30:56;1.7;1.6;0.6
76043;PMS7003;64740;34.694;33.088;2023-11-18T06:36:00;1.8;1.2;0.5
76043;PMS7003;64740;34.694;33.088;2023-11-18T06:40:40;2.2;1.7;0.7
76043;PMS7003;64740;34.694;33.088;2023-11-18T06:46:10;1.6;1.4;0.6
76043;PMS7003;64740;34.694;33.088;2023-11-18T06:50:46;2.1;1.7;0.8
76043;PMS7003;64740;34.694;33.088;2023-11-18T06:55:41;1.7;1.2;0.5
76043;PMS7003;64740;34.694;33.088;2023-11-18T07:00:40;1.7;1.3;0.7
76043;PMS7003;64740;34.694;33.088;2023-11-18T07:05:38;1.7;1.5;0.7
76043;PMS7003;64740;34.694;33.088;2023-11-18T07:10:48;2.7;1.8;0.7
76043;PMS7003;64740;34.694;33.088;2023-11-18T07:15:36;1.6;1.5;0.7
76043;PMS7003;64740;34.694;33.088;2023-11-18T07:20:36;1.9;1.4;0.8
76043;PMS7003;64740;34.694;33.088;2023-11-18T07:26:02;1.8;1.4;0.6
76043;PMS7003;64740;34.694;33.088;2023-11-18T07:31:08;1.8;1.4;0.8
76043;PMS7003;64740;34.694;33.088;2023-11-18T07:36:10;2.4;1.4;0.9
76043;PMS7003;64740;34.694;33.088;2023-11-18T07:40:46;2.2;1.7;0.8
76043;PMS7003;64740;34.694;33.088;2023-11-18T07:45:46;1.9;1.5;0.8
76043;PMS7003;64740;34.694;33.088;2023-11-18T07:50:56;2.5;2;0.9
76043;PMS7003;64740;34.694;33.088;2023-11-18T07:55:38;2.9;2.1;1.1
76043;PMS7003;64740;34.694;33.088;2023-11-18T08:01:02;3.5;2.7;1.1
76043;PMS7003;64740;34.694;33.088;2023-11-18T08:05:54;2.9;2.2;1.2
76043;PMS7003;64740;34.694;33.088;2023-11-18T08:11:10;2.7;2;1
76043;PMS7003;64740;34.694;33.088;2023-11-18T08:16:02;2.6;2.2;1.1
76043;PMS7003;64740;34.694;33.088;2023-11-18T08:20:58;2.2;2;1
76043;PMS7003;64740;34.694;33.088;2023-11-18T08:26:11;2.7;1.8;0.9
76043;PMS7003;64740;34.694;33.088;2023-11-18T08:30:38;2.6;2.1;1.1
76043;PMS7003;64740;34.694;33.088;2023-11-18T08:35:38;2.1;1.8;1.1
76043;PMS7003;64740;34.694;33.088;2023-11-18T08:40:50;2.9;2.1;0.9
76043;PMS7003;64740;34.694;33.088;2023-11-18T08:45:38;2.6;2.2;1.1
76043;PMS7003;64740;34.694;33.088;2023-11-18T08:51:12;3;2.1;1.1
76043;PMS7003;64740;34.694;33.088;2023-11-18T08:55:52;2.4;2.2;1.3
76043;PMS7003;64740;34.694;33.088;2023-11-18T09:01:08;2.8;2.2;1.3
76043;PMS7003;64740;34.694;33.088;2023-11-18T09:06:01;3;2.8;1.6
76043;PMS7003;64740;34.694;33.088;2023-11-18T09:11:11;3.3;2.7;1.6
76043;PMS7003;64740;34.694;33.088;2023-11-18T09:16:10;3;2.6;1.6
76043;PMS7003;64740;34.694;33.088;2023-11-18T09:20:44;3.2;2.4;1.3
76043;PMS7003;64740;34.694;33.088;2023-11-18T09:25:38;3.4;2.6;1.2
76043;PMS7003;64740;34.694;33.088;2023-11-18T09:30:52;2.6;2;1.3
76043;PMS7003;64740;34.694;33.088;2023-11-18T09:35:39;2.7;2.3;1.1
76043;PMS7003;64740;34.694;33.088;2023-11-18T09:40:53;4;2.7;1.5
76043;PMS7003;64740;34.694;33.088;2023-11-18T09:45:44;3;2.2;1.4
76043;PMS7003;64740;34.694;33.088;2023-11-18T09:50:56;2.8;2;1.2
76043;PMS7003;64740;34.694;33.088;2023-11-18T09:56:03;3;2.7;1.6
76043;PMS7003;64740;34.694;33.088;2023-11-18T10:01:08;2.7;2.4;1.3
76043;PMS7003;64740;34.694;33.088;2023-11-18T10:06:12;3.6;3.2;1.8
76043;PMS7003;64740;34.694;33.088;2023-11-18T10:10:38;3.7;2.5;1.1
76043;PMS7003;64740;34.694;33.088;2023-11-18T10:15:44;3.6;2.9;1.6
76043;PMS7003;64740;34.694;33.088;2023-11-18T10:20:46;3.9;2.8;1.8
76043;PMS7003;64740;34.694;33.088;2023-11-18T10:25:45;3.8;3.2;1.9
76043;PMS7003;64740;34.694;33.088;2023-11-18T10:31:01;3.9;3.3;1.9
76043;PMS7003;64740;34.694;33.088;2023-11-18T10:35:52;3.8;3;1.9
76043;PMS7003;64740;34.694;33.088;2023-11-18T10:41:10;4;3.2;1.9
76043;PMS7003;64740;34.694;33.088;2023-11-18T10:45:51;4.2;3.2;1.9
76043;PMS7003;64740;34.694;33.088;2023-11-18T10:51:11;3.8;3.4;2
76043;PMS7003;64740;34.694;33.088;2023-11-18T10:56:20;4.4;3.6;2
76043;PMS7003;64740;34.694;33.088;2023-11-18T11:00:47;4.4;4.1;2.1
76043;PMS7003;64740;34.694;33.088;2023-11-18T11:05:38;4.3;3.9;2.4
76043;PMS7003;64740;34.694;33.088;2023-11-18T11:10:39;4.6;3.3;2.2
76043;PMS7003;64740;34.694;33.088;2023-11-18T11:15:40;4.7;4;2.2
76043;PMS7003;64740;34.694;33.088;2023-11-18T11:20:41;5.8;4.2;2.6
76043;PMS7003;64740;34.694;33.088;2023-11-18T11:25:41;4.2;3.7;2
76043;PMS7003;64740;34.694;33.088;2023-11-18T11:31:03;4;3.1;1.9
76043;PMS7003;64740;34.694;33.088;2023-11-18T11:36:03;4;3.3;1.7
76043;PMS7003;64740;34.694;33.088;2023-11-18T11:41:08;3.9;3.5;1.9
76043;PMS7003;64740;34.694;33.088;2023-11-18T11:46:08;3.8;2.9;1.7
76043;PMS7003;64740;34.694;33.088;2023-11-18T11:50:57;3.7;3.4;2
76043;PMS7003;64740;34.694;33.088;2023-11-18T11:55:46;5.4;4.1;2.3
76043;PMS7003;64740;34.694;33.088;2023-11-18T12:00:47;3.8;3.2;2
76043;PMS7003;64740;34.694;33.088;2023-11-18T12:05:54;4;3.6;1.9
76043;PMS7003;64740;34.694;33.088;2023-11-18T12:11:11;4.7;3.6;2.1
76043;PMS7003;64740;34.694;33.088;2023-11-18T12:15:51;3.9;3.4;2.2
76043;PMS7003;64740;34.694;33.088;2023-11-18T12:20:45;4.2;3.1;1.9
76043;PMS7003;64740;34.694;33.088;2023-11-18T12:26:02;3.7;3.4;2.2
76043;PMS7003;64740;34.694;33.088;2023-11-18T12:30:58;4.3;3;1.8
76043;PMS7003;64740;34.694;33.088;2023-11-18T12:36:49;4.8;4.4;2.6
76043;PMS7003;64740;34.694;33.088;2023-11-18T12:41:01;4.6;3.8;2.2
76043;PMS7003;64740;34.694;33.088;2023-11-18T12:45:43;4.6;3.1;1.9
76043;PMS7003;64740;34.694;33.088;2023-11-18T12:50:38;4.8;3.9;2.2
76043;PMS7003;64740;34.694;33.088;2023-11-18T12:55:52;4.4;3.7;2.3
76043;PMS7003;64740;34.694;33.088;2023-11-18T13:01:10;4.1;3.6;2.4
76043;PMS7003;64740;34.694;33.088;2023-11-18T13:05:38;4.4;3.4;2.2
76043;PMS7003;64740;34.694;33.088;2023-11-18T13:10:50;4.2;3.9;2.3
76043;PMS7003;64740;34.694;33.088;2023-11-18T13:16:00;5.6;3.9;2.4
76043;PMS7003;64740;34.694;33.088;2023-11-18T13:20:58;4.8;4;2.4
76043;PMS7003;64740;34.694;33.088;2023-11-18T13:26:10;5.1;4.3;2.5
76043;PMS7003;64740;34.694;33.088;2023-11-18T13:30:58;5.9;4;2.6
76043;PMS7003;64740;34.694;33.088;2023-11-18T13:35:38;5.4;4.4;2.7
76043;PMS7003;64740;34.694;33.088;2023-11-18T13:40:42;5.2;4.2;2.6
76043;PMS7003;64740;34.694;33.088;2023-11-18T13:45:58;5.3;4.1;2.6
76043;PMS7003;64740;34.694;33.088;2023-11-18T13:51:11;5.8;4.5;2.6
76043;PMS7003;64740;34.694;33.088;2023-11-18T13:55:40;5;3.9;2.4
76043;PMS7003;64740;34.694;33.088;2023-11-18T14:00:48;4.3;3.8;2.3
76043;PMS7003;64740;34.694;33.088;2023-11-18T14:06:03;4.7;3.8;2.4
76043;PMS7003;64740;34.694;33.088;2023-11-18T14:10:58;4.1;3.5;1.8
76043;PMS7003;64740;34.694;33.088;2023-11-18T14:16:10;5.2;4.1;2.4
76043;PMS7003;64740;34.694;33.088;2023-11-18T14:20:58;5.8;4.2;2.4
76043;PMS7003;64740;34.694;33.088;2023-11-18T14:25:41;5.8;4.6;2.8
76043;PMS7003;64740;34.694;33.088;2023-11-18T14:30:40;5.6;5;2.7
76043;PMS7003;64740;34.694;33.088;2023-11-18T14:35:38;4.5;3.7;2.1
76043;PMS7003;64740;34.694;33.088;2023-11-18T14:41:10;5;4;2.5
76043;PMS7003;64740;34.694;33.088;2023-11-18T14:45:52;4.8;3.5;1.9
76043;PMS7003;64740;34.694;33.088;2023-11-18T14:50:50;4.9;4.3;2.3
76043;PMS7003;64740;34.694;33.088;2023-11-18T14:55:58;5.6;4.3;2.5
76043;PMS7003;64740;34.694;33.088;2023-11-18T15:00:56;5.4;4.3;2.6
76043;PMS7003;64740;34.694;33.088;2023-11-18T15:06:10;6.7;5.1;2.8
76043;PMS7003;64740;34.694;33.088;2023-11-18T15:10:58;8.4;6;3.3
76043;PMS7003;64740;34.694;33.088;2023-11-18T15:15:41;8.9;6.7;3.7
76043;PMS7003;64740;34.694;33.088;2023-11-18T15:20:40;7.3;5.9;3.3
76043;PMS7003;64740;34.694;33.088;2023-11-18T15:25:40;7.6;6;3.7
76043;PMS7003;64740;34.694;33.088;2023-11-18T15:31:10;8.8;7.2;4.3
76043;PMS7003;64740;34.694;33.088;2023-11-18T15:35:44;9.1;6.9;4.3
76043;PMS7003;64740;34.694;33.088;2023-11-18T15:40:40;8.6;6.7;3.6
76043;PMS7003;64740;34.694;33.088;2023-11-18T15:46:00;7.3;6.1;3.7
76043;PMS7003;64740;34.694;33.088;2023-11-18T15:50:58;8.8;6.6;3.8
76043;PMS7003;64740;34.694;33.088;2023-11-18T15:56:10;7.2;5.6;3.3
76043;PMS7003;64740;34.694;33.088;2023-11-18T16:00:58;7.5;6.1;3
76043;PMS7003;64740;34.694;33.088;2023-11-18T16:05:38;6.5;5;2.8
76043;PMS7003;64740;34.694;33.088;2023-11-18T16:11:03;8.8;7.1;3.9
76043;PMS7003;64740;34.694;33.088;2023-11-18T16:15:52;8.5;6.9;3.7
76043;PMS7003;64740;34.694;33.088;2023-11-18T16:21:10;8.3;6.7;3.6
76043;PMS7003;64740;34.694;33.088;2023-11-18T16:26:00;7.7;5.9;3.5
76043;PMS7003;64740;34.694;33.088;2023-11-18T16:30:38;8.1;6.2;3.8
76043;PMS7003;64740;34.694;33.088;2023-11-18T16:36:03;9.7;6.7;4.2
76043;PMS7003;64740;34.694;33.088;2023-11-18T16:40:39;9.3;6.2;3.4
76043;PMS7003;64740;34.694;33.088;2023-11-18T16:46:08;6.7;5.1;2.9
76043;PMS7003;64740;34.694;33.088;2023-11-18T16:50:40;7.7;5.6;2.8
76043;PMS7003;64740;34.694;33.088;2023-11-18T16:55:40;6.4;4.7;2.5
76043;PMS7003;64740;34.694;33.088;2023-11-18T17:00:46;7;4.9;2.6
76043;PMS7003;64740;34.694;33.088;2023-11-18T17:05:52;6.4;5;2.8
76043;PMS7003;64740;34.694;33.088;2023-11-18T17:11:10;6.3;4.4;2.2
76043;PMS7003;64740;34.694;33.088;2023-11-18T17:16:03;5.9;4.6;2.5
76043;PMS7003;64740;34.694;33.088;2023-11-18T17:20:50;5.3;4.1;2
76043;PMS7003;64740;34.694;33.088;2023-11-18T17:26:03;6.5;4.4;2.2
76043;PMS7003;64740;34.694;33.088;2023-11-18T17:30:44;7.5;5;2.8
76043;PMS7003;64740;34.694;33.088;2023-11-18T17:36:08;5.1;3.8;2.4
76043;PMS7003;64740;34.694;33.088;2023-11-18T17:40:38;4.9;3.8;1.9
76043;PMS7003;64740;34.694;33.088;2023-11-18T17:45:44;6.7;5.1;2.9
76043;PMS7003;64740;34.694;33.088;2023-11-18T17:50:52;6.5;5.4;3.3
76043;PMS7003;64740;34.694;33.088;2023-11-18T17:55:52;7.8;6.2;3.2
76043;PMS7003;64740;34.694;33.088;2023-11-18T18:01:10;6.7;5;2.8
76043;PMS7003;64740;34.694;33.088;2023-11-18T18:05:59;4.1;2.7;1
76043;PMS7003;64740;34.694;33.088;2023-11-18T18:10:38;3;2;0.7
76043;PMS7003;64740;34.694;33.088;2023-11-18T18:15:42;3.6;2.4;0.8
76043;PMS7003;64740;34.694;33.088;2023-11-18T18:21:13;5.1;3.5;1.1
76043;PMS7003;64740;34.694;33.088;2023-11-18T18:26:10;6.3;4.1;1.6
76043;PMS7003;64740;34.694;33.088;2023-11-18T18:30:48;7;4.6;1.7
76043;PMS7003;64740;34.694;33.088;2023-11-18T18:35:54;4.8;3.3;1.2
76043;PMS7003;64740;34.694;33.088;2023-11-18T18:40:48;6.5;3.8;1.4
76043;PMS7003;64740;34.694;33.088;2023-11-18T18:45:48;6.7;4.4;2
76043;PMS7003;64740;34.694;33.088;2023-11-18T18:51:10;6.1;4.1;2
76043;PMS7003;64740;34.694;33.088;2023-11-18T18:56:00;8.2;6.1;2.9
76043;PMS7003;64740;34.694;33.088;2023-11-18T19:00:48;8.2;6.1;3.1
76043;PMS7003;64740;34.694;33.088;2023-11-18T19:05:38;7.2;5.3;2.7
76043;PMS7003;64740;34.694;33.088;2023-11-18T19:10:58;8.8;5.6;2.7
76043;PMS7003;64740;34.694;33.088;2023-11-18T19:16:10;8;6;3.1
76043;PMS7003;64740;34.694;33.088;2023-11-18T19:20:41;8.1;5.4;3
76043;PMS7003;64740;34.694;33.088;2023-11-18T19:25:47;6.7;4.9;2.5
76043;PMS7003;64740;34.694;33.088;2023-11-18T19:31:03;8.1;5.9;3
76043;PMS7003;64740;34.694;33.088;2023-11-18T19:35:40;8.2;6.4;3.2
76043;PMS7003;64740;34.694;33.088;2023-11-18T19:41:10;7.6;5.8;3.3
76043;PMS7003;64740;34.694;33.088;2023-11-18T19:45:38;8.3;6.2;3.3
76043;PMS7003;64740;34.694;33.088;2023-11-18T19:50:48;10.3;7.6;3.7
76043;PMS7003;64740;34.694;33.088;2023-11-18T19:56:01;7;4.6;2.3
76043;PMS7003;64740;34.694;33.088;2023-11-18T20:00:56;3;1.8;0.6
76043;PMS7003;64740;34.694;33.088;2023-11-18T20:06:13;2.7;1.3;0.4
76043;PMS7003;64740;34.694;33.088;2023-11-18T20:10:39;1.9;1.3;0.2
76043;PMS7003;64740;34.694;33.088;2023-11-18T20:15:39;1.8;1.2;0.5
76043;PMS7003;64740;34.694;33.088;2023-11-18T20:20:39;1.7;1.1;0.4
76043;PMS7003;64740;34.694;33.088;2023-11-18T20:25:53;1.8;1.4;0.4
76043;PMS7003;64740;34.694;33.088;2023-11-18T20:31:09;2.1;1.6;0.6
76043;PMS7003;64740;34.694;33.088;2023-11-18T20:35:39;1.9;1.4;0.4
76043;PMS7003;64740;34.694;33.088;2023-11-18T20:40:39;2.3;1.1;0.5
76043;PMS7003;64740;34.694;33.088;2023-11-18T20:46:00;2.5;1.9;0.7
76043;PMS7003;64740;34.694;33.088;2023-11-18T20:51:11;3.3;2.1;0.7
76043;PMS7003;64740;34.694;33.088;2023-11-18T20:55:47;12.5;9.9;6.2
76043;PMS7003;64740;34.694;33.088;2023-11-18T21:00:39;3.4;2.3;1
76043;PMS7003;64740;34.694;33.088;2023-11-18T21:05:39;3.4;2.6;1
76043;PMS7003;64740;34.694;33.088;2023-11-18T21:11:01;4.3;3;1.4
76043;PMS7003;64740;34.694;33.088;2023-11-18T21:16:11;5.8;3.6;1.5
76043;PMS7003;64740;34.694;33.088;2023-11-18T21:20:59;5;3;1.2
76043;PMS7003;64740;34.694;33.088;2023-11-18T21:25:57;5.5;3.1;1.2
76043;PMS7003;64740;34.694;33.088;2023-11-18T21:30:39;4.1;2.9;1
76043;PMS7003;64740;34.694;33.088;2023-11-18T21:35:57;4.3;2.9;1.3
76043;PMS7003;64740;34.694;33.088;2023-11-18T21:41:11;6;4.3;1.6
76043;PMS7003;64740;34.694;33.088;2023-11-18T21:45:47;6.1;4.1;1.9
76043;PMS7003;64740;34.694;33.088;2023-11-18T21:50:39;6.2;3.8;1.9
76043;PMS7003;64740;34.694;33.088;2023-11-18T21:55:55;7.6;4.5;2.3
76043;PMS7003;64740;34.694;33.088;2023-11-18T22:00:59;7.1;4.5;2.2
76043;PMS7003;64740;34.694;33.088;2023-11-18T22:06:11;7.9;5.5;2.2
76043;PMS7003;64740;34.694;33.088;2023-11-18T22:10:59;7;5;2.1
76043;PMS7003;64740;34.694;33.088;2023-11-18T22:15:57;6.2;4.8;2.1
76043;PMS7003;64740;34.694;33.088;2023-11-18T22:20:47;6.5;4.7;2.4
76043;PMS7003;64740;34.694;33.088;2023-11-18T22:25:39;6.2;4.2;1.9
76043;PMS7003;64740;34.694;33.088;2023-11-18T22:31:11;4.8;3.2;1.6
76043;PMS7003;64740;34.694;33.088;2023-11-18T22:35:47;4.3;3.2;1.3
76043;PMS7003;64740;34.694;33.088;2023-11-18T22:40:39;4.2;2.6;1.2
76043;PMS7003;64740;34.694;33.088;2023-11-18T22:45:53;2.9;2.3;0.9
76043;PMS7003;64740;34.694;33.088;2023-11-18T22:51:01;2.6;1.6;0.5
76043;PMS7003;64740;34.694;33.088;2023-11-18T22:56:13;2.2;1.5;0.9
76043;PMS7003;64740;34.694;33.088;2023-11-18T23:00:59;2.3;1.6;0.8
76043;PMS7003;64740;34.694;33.088;2023-11-18T23:05:55;2.5;1.4;0.5
76043;PMS7003;64740;34.694;33.088;2023-11-18T23:10:51;2.1;1.6;0.7
76043;PMS7003;64740;34.694;33.088;2023-11-18T23:15:41;2.8;1.8;0.7
76043;PMS7003;64740;34.694;33.088;2023-11-18T23:21:11;2.2;1.7;0.5
76043;PMS7003;64740;34.694;33.088;2023-11-18T23:25:47;2.7;1.8;0.5
76043;PMS7003;64740;34.694;33.088;2023-11-18T23:30:41;3;1.9;0.8
76043;PMS7003;64740;34.694;33.088;2023-11-18T23:35:51;2.4;2.1;0.8
76043;PMS7003;64740;34.694;33.088;2023-11-18T23:41:03;2.6;1.8;0.7
76043;PMS7003;64740;34.694;33.088;2023-11-18T23:46:13;2.9;1.9;0.9
76043;PMS7003;64740;34.694;33.088;2023-11-18T23:51:03;2.8;1.7;0.8
76043;PMS7003;64740;34.694;33.088;2023-11-18T23:55:59;3.6;2.4;0.9
